sensor_id;sensor_type;location;lat;lon;timestamp;pressure;altitude;pressure_sealevel;temperature;humidity
11712;BME280;5912;51.034;6.984;2022-08-19T00:01:45;100629.16;;;20.84;97.73
11712;BME280;5912;51.034;6.984;2022-08-19T00:04:13;100627.81;;;20.81;97.38
11712;BME280;5912;51.034;6.984;2022-08-19T00:06:41;100627.25;;;20.79;98.34
11712;BME280;5912;51.034;6.984;2022-08-19T00:09:14;100632.09;;;20.77;98.51
11712;BME280;5912;51.034;6.984;2022-08-19T00:11:41;100619.81;;;20.66;98.22
11712;BME280;5912;51.034;6.984;2022-08-19T00:14:08;100637.72;;;20.71;98.73
11712;BME280;5912;51.034;6.984;2022-08-19T00:16:35;100634.22;;;20.65;98.41
11712;BME280;5912;51.034;6.984;2022-08-19T00:19:02;100598.47;;;20.21;99.85
11712;BME280;5912;51.034;6.984;2022-08-19T00:21:28;100630.50;;;20.56;99.32
11712;BME280;5912;51.034;6.984;2022-08-19T00:23:55;100632.66;;;20.54;99.14
11712;BME280;5912;51.034;6.984;2022-08-19T00:26:24;100626.75;;;20.52;100.00
11712;BME280;5912;51.034;6.984;2022-08-19T00:28:49;100632.09;;;20.52;100.00
11712;BME280;5912;51.034;6.984;2022-08-19T00:31:14;100632.63;;;20.49;99.80
11712;BME280;5912;51.034;6.984;2022-08-19T00:33:41;100633.72;;;20.48;100.00
11712;BME280;5912;51.034;6.984;2022-08-19T00:36:08;100640.38;;;20.45;100.00
11712;BME280;5912;51.034;6.984;2022-08-19T00:38:36;100644.41;;;20.43;100.00
11712;BME280;5912;51.034;6.984;2022-08-19T00:41:06;100637.97;;;20.44;100.00
11712;BME280;5912;51.034;6.984;2022-08-19T00:43:31;100636.38;;;20.43;100.00
11712;BME280;5912;51.034;6.984;2022-08-19T00:45:57;100624.38;;;20.35;100.00
11712;BME280;5912;51.034;6.984;2022-08-19T00:48:22;100615.03;;;20.33;100.00
11712;BME280;5912;51.034;6.984;2022-08-19T00:50:50;100619.81;;;20.41;100.00
11712;BME280;5912;51.034;6.984;2022-08-19T00:53:20;100626.78;;;20.42;100.00
11712;BME280;5912;51.034;6.984;2022-08-19T00:55:50;100625.97;;;20.36;100.00
11712;BME280;5912;51.034;6.984;2022-08-19T00:58:17;100603.53;;;20.17;100.00
11712;BME280;5912;51.034;6.984;2022-08-19T01:00:45;100632.66;;;20.29;100.00
11712;BME280;5912;51.034;6.984;2022-08-19T01:03:14;100620.09;;;20.19;100.00
11712;BME280;5912;51.034;6.984;2022-08-19T01:05:42;100623.59;;;20.20;100.00
11712;BME280;5912;51.034;6.984;2022-08-19T01:08:09;100628.94;;;20.20;100.00
11712;BME280;5912;51.034;6.984;2022-08-19T01:10:39;100634.78;;;20.17;100.00
11712;BME280;5912;51.034;6.984;2022-08-19T01:13:06;100636.13;;;20.14;100.00
11712;BME280;5912;51.034;6.984;2022-08-19T01:15:34;100632.38;;;20.15;100.00
11712;BME280;5912;51.034;6.984;2022-08-19T01:18:05;100617.91;;;20.06;100.00
11712;BME280;5912;51.034;6.984;2022-08-19T01:20:31;100628.06;;;20.09;100.00
11712;BME280;5912;51.034;6.984;2022-08-19T01:22:58;100626.75;;;20.12;100.00
11712;BME280;5912;51.034;6.984;2022-08-19T01:25:32;100627.56;;;20.17;100.00
11712;BME280;5912;51.034;6.984;2022-08-19T01:27:59;100616.06;;;20.12;100.00
11712;BME280;5912;51.034;6.984;2022-08-19T01:30:29;100623.28;;;20.11;100.00
11712;BME280;5912;51.034;6.984;2022-08-19T01:32:56;100627.28;;;20.09;100.00
11712;BME280;5912;51.034;6.984;2022-08-19T01:35:23;100617.13;;;20.06;100.00
11712;BME280;5912;51.034;6.984;2022-08-19T01:37:58;100618.19;;;20.10;100.00
11712;BME280;5912;51.034;6.984;2022-08-19T01:40:28;100613.94;;;20.14;100.00
11712;BME280;5912;51.034;6.984;2022-08-19T01:42:54;100617.44;;;20.14;100.00
11712;BME280;5912;51.034;6.984;2022-08-19T01:45:21;100623.81;;;20.13;100.00
11712;BME280;5912;51.034;6.984;2022-08-19T01:47:48;100595.78;;;19.96;100.00
11712;BME280;5912;51.034;6.984;2022-08-19T01:50:15;100618.47;;;20.08;100.00
11712;BME280;5912;51.034;6.984;2022-08-19T01:52:42;100612.31;;;20.08;100.00
11712;BME280;5912;51.034;6.984;2022-08-19T01:55:12;100602.19;;;20.05;100.00
11712;BME280;5912;51.034;6.984;2022-08-19T01:57:39;100602.72;;;20.07;100.00
11712;BME280;5912;51.034;6.984;2022-08-19T02:00:10;100596.56;;;20.06;100.00
11712;BME280;5912;51.034;6.984;2022-08-19T02:02:35;100596.84;;;20.00;100.00
11712;BME280;5912;51.034;6.984;2022-08-19T02:05:01;100608.06;;;20.02;100.00
11712;BME280;5912;51.034;6.984;2022-08-19T02:07:26;100609.63;;;19.98;100.00
11712;BME280;5912;51.034;6.984;2022-08-19T02:09:53;100564.50;;;19.61;100.00
11712;BME280;5912;51.034;6.984;2022-08-19T02:12:19;100621.38;;;19.92;100.00
11712;BME280;5912;51.034;6.984;2022-08-19T02:14:45;100624.03;;;19.87;100.00
11712;BME280;5912;51.034;6.984;2022-08-19T02:17:11;100621.09;;;19.88;100.00
11712;BME280;5912;51.034;6.984;2022-08-19T02:19:36;100617.66;;;19.88;100.00
11712;BME280;5912;51.034;6.984;2022-08-19T02:22:01;100617.38;;;19.89;100.00
11712;BME280;5912;51.034;6.984;2022-08-19T02:24:27;100619.78;;;19.91;100.00
11712;BME280;5912;51.034;6.984;2022-08-19T02:26:53;100610.16;;;19.85;100.00
11712;BME280;5912;51.034;6.984;2022-08-19T02:29:19;100617.91;;;19.86;100.00
11712;BME280;5912;51.034;6.984;2022-08-19T02:31:44;100620.03;;;19.84;100.00
11712;BME280;5912;51.034;6.984;2022-08-19T02:34:09;100627.50;;;19.82;100.00
11712;BME280;5912;51.034;6.984;2022-08-19T02:36:35;100617.91;;;19.81;100.00
11712;BME280;5912;51.034;6.984;2022-08-19T02:39:00;100639.50;;;19.80;100.00
11712;BME280;5912;51.034;6.984;2022-08-19T02:41:28;100629.38;;;19.82;100.00
11712;BME280;5912;51.034;6.984;2022-08-19T02:43:57;100624.28;;;19.80;100.00
11712;BME280;5912;51.034;6.984;2022-08-19T02:46:28;100622.41;;;19.76;100.00
11712;BME280;5912;51.034;6.984;2022-08-19T02:49:00;100632.03;;;19.77;100.00
11712;BME280;5912;51.034;6.984;2022-08-19T02:51:30;100634.44;;;19.78;100.00
11712;BME280;5912;51.034;6.984;2022-08-19T02:53:56;100646.97;;;19.78;100.00
11712;BME280;5912;51.034;6.984;2022-08-19T02:56:23;100613.31;;;19.62;100.00
11712;BME280;5912;51.034;6.984;2022-08-19T02:58:49;100630.41;;;19.76;100.00
11712;BME280;5912;51.034;6.984;2022-08-19T03:01:26;100622.94;;;19.63;100.00
11712;BME280;5912;51.034;6.984;2022-08-19T03:03:52;100646.34;;;19.51;100.00
11712;BME280;5912;51.034;6.984;2022-08-19T03:06:19;100641.25;;;19.44;100.00
11712;BME280;5912;51.034;6.984;2022-08-19T03:09:05;100642.88;;;19.45;100.00
11712;BME280;5912;51.034;6.984;2022-08-19T03:11:31;100646.84;;;19.43;100.00
11712;BME280;5912;51.034;6.984;2022-08-19T03:13:57;100642.28;;;19.38;100.00
11712;BME280;5912;51.034;6.984;2022-08-19T03:16:25;100636.66;;;19.35;100.00
11712;BME280;5912;51.034;6.984;2022-08-19T03:18:52;100634.81;;;19.35;100.00
11712;BME280;5912;51.034;6.984;2022-08-19T03:21:23;100618.19;;;19.23;100.00
11712;BME280;5912;51.034;6.984;2022-08-19T03:23:49;100589.34;;;19.05;100.00
11712;BME280;5912;51.034;6.984;2022-08-19T03:26:15;100635.81;;;19.24;100.00
11712;BME280;5912;51.034;6.984;2022-08-19T03:28:42;100640.66;;;19.32;100.00
11712;BME280;5912;51.034;6.984;2022-08-19T03:31:11;100646.78;;;19.33;100.00
11712;BME280;5912;51.034;6.984;2022-08-19T03:33:36;100655.31;;;19.30;100.00
11712;BME280;5912;51.034;6.984;2022-08-19T03:38:29;100659.03;;;19.29;100.00
11712;BME280;5912;51.034;6.984;2022-08-19T03:40:54;100640.84;;;19.21;100.00
11712;BME280;5912;51.034;6.984;2022-08-19T03:43:20;100650.97;;;19.24;100.00
11712;BME280;5912;51.034;6.984;2022-08-19T03:45:46;100597.53;;;18.93;100.00
11712;BME280;5912;51.034;6.984;2022-08-19T03:48:11;100654.16;;;19.21;100.00
11712;BME280;5912;51.034;6.984;2022-08-19T03:50:40;100658.44;;;19.22;100.00
11712;BME280;5912;51.034;6.984;2022-08-19T03:53:06;100672.28;;;19.18;100.00
11712;BME280;5912;51.034;6.984;2022-08-19T03:55:33;100665.63;;;19.16;100.00
11712;BME280;5912;51.034;6.984;2022-08-19T03:57:58;100648.25;;;19.08;100.00
11712;BME280;5912;51.034;6.984;2022-08-19T04:00:24;100661.84;;;19.12;100.00
11712;BME280;5912;51.034;6.984;2022-08-19T04:02:49;100639.66;;;18.96;100.00
11712;BME280;5912;51.034;6.984;2022-08-19T04:05:14;100666.41;;;19.11;100.00
11712;BME280;5912;51.034;6.984;2022-08-19T04:07:40;100670.66;;;19.12;100.00
11712;BME280;5912;51.034;6.984;2022-08-19T04:10:06;100666.91;;;19.13;100.00
11712;BME280;5912;51.034;6.984;2022-08-19T04:12:31;100659.47;;;19.15;100.00
11712;BME280;5912;51.034;6.984;2022-08-19T04:14:57;100666.94;;;19.18;100.00
11712;BME280;5912;51.034;6.984;2022-08-19T04:17:23;100667.50;;;19.21;100.00
11712;BME280;5912;51.034;6.984;2022-08-19T04:19:49;100669.91;;;19.22;100.00
11712;BME280;5912;51.034;6.984;2022-08-19T04:22:14;100677.63;;;19.24;100.00
11712;BME280;5912;51.034;6.984;2022-08-19T04:24:39;100682.97;;;19.24;100.00
11712;BME280;5912;51.034;6.984;2022-08-19T04:27:05;100655.69;;;19.06;100.00
11712;BME280;5912;51.034;6.984;2022-08-19T04:29:31;100672.06;;;19.25;100.00
11712;BME280;5912;51.034;6.984;2022-08-19T04:31:58;100671.56;;;19.28;100.00
11712;BME280;5912;51.034;6.984;2022-08-19T04:34:25;100672.94;;;19.31;100.00
11712;BME280;5912;51.034;6.984;2022-08-19T04:36:52;100680.66;;;19.32;100.00
11712;BME280;5912;51.034;6.984;2022-08-19T04:39:25;100678.28;;;19.36;100.00
11712;BME280;5912;51.034;6.984;2022-08-19T04:42:14;100656.28;;;19.18;100.00
11712;BME280;5912;51.034;6.984;2022-08-19T04:44:58;100679.34;;;19.40;100.00
11712;BME280;5912;51.034;6.984;2022-08-19T04:47:24;100682.56;;;19.42;100.00
11712;BME280;5912;51.034;6.984;2022-08-19T04:49:49;100676.72;;;19.45;100.00
11712;BME280;5912;51.034;6.984;2022-08-19T04:52:14;100695.13;;;19.46;100.00
11712;BME280;5912;51.034;6.984;2022-08-19T04:54:39;100692.44;;;19.46;100.00
11712;BME280;5912;51.034;6.984;2022-08-19T04:57:07;100694.06;;;19.52;100.00
11712;BME280;5912;51.034;6.984;2022-08-19T04:59:35;100692.78;;;19.55;100.00
11712;BME280;5912;51.034;6.984;2022-08-19T05:02:02;100704.78;;;19.62;100.00
11712;BME280;5912;51.034;6.984;2022-08-19T05:04:27;100694.63;;;19.54;100.00
11712;BME280;5912;51.034;6.984;2022-08-19T05:06:56;100706.16;;;19.70;100.00
11712;BME280;5912;51.034;6.984;2022-08-19T05:09:22;100715.78;;;19.81;100.00
11712;BME280;5912;51.034;6.984;2022-08-19T05:11:47;100711.56;;;19.85;100.00
11712;BME280;5912;51.034;6.984;2022-08-19T05:14:13;100713.69;;;19.98;100.00
11712;BME280;5912;51.034;6.984;2022-08-19T05:16:39;100716.94;;;20.05;100.00
11712;BME280;5912;51.034;6.984;2022-08-19T05:19:05;100714.03;;;20.11;100.00
11712;BME280;5912;51.034;6.984;2022-08-19T05:21:49;100718.88;;;20.19;100.00
11712;BME280;5912;51.034;6.984;2022-08-19T05:24:33;100711.94;;;20.18;100.00
11712;BME280;5912;51.034;6.984;2022-08-19T05:27:00;100706.63;;;20.33;100.00
11712;BME280;5912;51.034;6.984;2022-08-19T05:29:28;100729.88;;;20.58;100.00
11712;BME280;5912;51.034;6.984;2022-08-19T05:31:54;100721.06;;;20.68;100.00
11712;BME280;5912;51.034;6.984;2022-08-19T05:34:22;100725.63;;;20.77;100.00
11712;BME280;5912;51.034;6.984;2022-08-19T05:36:51;100726.13;;;20.94;100.00
11712;BME280;5912;51.034;6.984;2022-08-19T05:39:20;100725.63;;;21.02;100.00
11712;BME280;5912;51.034;6.984;2022-08-19T05:41:48;100728.28;;;21.12;100.00
11712;BME280;5912;51.034;6.984;2022-08-19T05:44:15;100735.72;;;21.20;100.00
11712;BME280;5912;51.034;6.984;2022-08-19T05:46:43;100730.66;;;21.29;100.00
11712;BME280;5912;51.034;6.984;2022-08-19T05:49:08;100738.38;;;21.35;100.00
11712;BME280;5912;51.034;6.984;2022-08-19T05:51:35;100729.00;;;21.43;100.00
11712;BME280;5912;51.034;6.984;2022-08-19T05:54:03;100721.25;;;21.41;100.00
11712;BME280;5912;51.034;6.984;2022-08-19T05:56:29;100736.72;;;21.54;100.00
11712;BME280;5912;51.034;6.984;2022-08-19T05:58:58;100726.88;;;21.45;100.00
11712;BME280;5912;51.034;6.984;2022-08-19T06:01:25;100733.81;;;21.46;100.00
11712;BME280;5912;51.034;6.984;2022-08-19T06:03:51;100725.50;;;21.47;100.00
11712;BME280;5912;51.034;6.984;2022-08-19T06:06:17;100733.00;;;21.50;100.00
11712;BME280;5912;51.034;6.984;2022-08-19T06:08:42;100733.78;;;21.56;100.00
11712;BME280;5912;51.034;6.984;2022-08-19T06:11:17;100742.06;;;21.64;100.00
11712;BME280;5912;51.034;6.984;2022-08-19T06:13:45;100724.91;;;21.70;100.00
11712;BME280;5912;51.034;6.984;2022-08-19T06:16:13;100714.44;;;21.74;100.00
11712;BME280;5912;51.034;6.984;2022-08-19T06:18:44;100711.47;;;21.85;100.00
11712;BME280;5912;51.034;6.984;2022-08-19T06:21:10;100715.97;;;21.95;100.00
11712;BME280;5912;51.034;6.984;2022-08-19T06:23:35;100709.78;;;22.05;100.00
11712;BME280;5912;51.034;6.984;2022-08-19T06:26:00;100720.91;;;22.22;100.00
11712;BME280;5912;51.034;6.984;2022-08-19T06:31:47;100715.84;;;22.59;98.82
11712;BME280;5912;51.034;6.984;2022-08-19T06:34:15;100721.88;;;22.79;97.63
11712;BME280;5912;51.034;6.984;2022-08-19T06:36:43;100731.63;;;22.94;96.55
11712;BME280;5912;51.034;6.984;2022-08-19T06:39:21;100724.75;;;23.11;95.17
11712;BME280;5912;51.034;6.984;2022-08-19T06:41:49;100725.97;;;23.24;94.67
11712;BME280;5912;51.034;6.984;2022-08-19T06:44:15;100721.06;;;23.36;93.57
11712;BME280;5912;51.034;6.984;2022-08-19T06:46:41;100732.94;;;23.54;91.86
11712;BME280;5912;51.034;6.984;2022-08-19T06:49:06;100726.59;;;23.68;91.25
11712;BME280;5912;51.034;6.984;2022-08-19T06:51:34;100714.19;;;23.72;90.97
11712;BME280;5912;51.034;6.984;2022-08-19T06:53:59;100736.91;;;24.03;89.28
11712;BME280;5912;51.034;6.984;2022-08-19T06:56:27;100737.28;;;24.15;88.75
11712;BME280;5912;51.034;6.984;2022-08-19T06:59:06;100746.06;;;24.21;88.33
11712;BME280;5912;51.034;6.984;2022-08-19T07:01:37;100736.09;;;24.21;87.12
11712;BME280;5912;51.034;6.984;2022-08-19T07:04:04;100744.31;;;24.30;87.64
11712;BME280;5912;51.034;6.984;2022-08-19T07:06:30;100746.91;;;24.53;87.19
11712;BME280;5912;51.034;6.984;2022-08-19T07:08:57;100737.69;;;24.78;83.86
11712;BME280;5912;51.034;6.984;2022-08-19T07:11:23;100750.28;;;24.96;83.66
11712;BME280;5912;51.034;6.984;2022-08-19T07:13:48;100745.84;;;25.19;82.81
11712;BME280;5912;51.034;6.984;2022-08-19T07:16:16;100756.97;;;25.58;81.54
11712;BME280;5912;51.034;6.984;2022-08-19T07:18:45;100762.06;;;26.00;78.89
11712;BME280;5912;51.034;6.984;2022-08-19T07:21:17;100759.09;;;26.37;76.82
11712;BME280;5912;51.034;6.984;2022-08-19T07:23:43;100765.38;;;26.68;74.38
11712;BME280;5912;51.034;6.984;2022-08-19T07:26:18;100767.84;;;26.78;74.03
11712;BME280;5912;51.034;6.984;2022-08-19T07:28:45;100754.97;;;26.62;73.68
11712;BME280;5912;51.034;6.984;2022-08-19T07:31:12;100770.34;;;26.61;74.00
11712;BME280;5912;51.034;6.984;2022-08-19T07:33:39;100768.34;;;26.45;74.15
11712;BME280;5912;51.034;6.984;2022-08-19T07:36:07;100777.38;;;26.27;74.79
11712;BME280;5912;51.034;6.984;2022-08-19T07:38:33;100786.28;;;26.13;74.94
11712;BME280;5912;51.034;6.984;2022-08-19T07:41:00;100773.34;;;26.02;75.58
11712;BME280;5912;51.034;6.984;2022-08-19T07:43:26;100788.41;;;26.03;76.04
11712;BME280;5912;51.034;6.984;2022-08-19T07:45:54;100797.28;;;26.03;75.56
11712;BME280;5912;51.034;6.984;2022-08-19T07:48:25;100800.84;;;25.99;75.58
11712;BME280;5912;51.034;6.984;2022-08-19T07:50:56;100789.28;;;25.98;75.42
11712;BME280;5912;51.034;6.984;2022-08-19T07:53:23;100791.34;;;26.15;75.36
11712;BME280;5912;51.034;6.984;2022-08-19T07:55:49;100802.44;;;26.27;72.83
11712;BME280;5912;51.034;6.984;2022-08-19T07:58:16;100799.53;;;26.37;72.46
11712;BME280;5912;51.034;6.984;2022-08-19T08:00:44;100724.84;;;26.02;72.67
11712;BME280;5912;51.034;6.984;2022-08-19T08:03:10;100813.81;;;26.95;71.31
11712;BME280;5912;51.034;6.984;2022-08-19T08:05:45;100813.72;;;27.62;68.41
11712;BME280;5912;51.034;6.984;2022-08-19T08:08:30;100811.38;;;28.08;66.50
11712;BME280;5912;51.034;6.984;2022-08-19T08:11:11;100817.03;;;28.54;64.32
11712;BME280;5912;51.034;6.984;2022-08-19T08:13:36;100819.25;;;28.86;62.78
11712;BME280;5912;51.034;6.984;2022-08-19T08:16:02;100819.69;;;29.05;61.05
11712;BME280;5912;51.034;6.984;2022-08-19T08:18:28;100821.31;;;29.15;60.19
11712;BME280;5912;51.034;6.984;2022-08-19T08:20:55;100822.25;;;29.19;57.77
11712;BME280;5912;51.034;6.984;2022-08-19T08:23:20;100824.50;;;29.17;58.33
11712;BME280;5912;51.034;6.984;2022-08-19T08:25:52;100820.22;;;29.07;58.20
11712;BME280;5912;51.034;6.984;2022-08-19T08:28:18;100826.88;;;29.01;58.18
11712;BME280;5912;51.034;6.984;2022-08-19T08:30:45;100822.72;;;29.04;59.24
11712;BME280;5912;51.034;6.984;2022-08-19T08:33:13;100820.00;;;29.29;59.09
11712;BME280;5912;51.034;6.984;2022-08-19T08:35:39;100817.69;;;29.57;57.88
11712;BME280;5912;51.034;6.984;2022-08-19T08:38:07;100824.19;;;29.73;57.60
11712;BME280;5912;51.034;6.984;2022-08-19T08:43:31;100819.22;;;29.75;56.95
11712;BME280;5912;51.034;6.984;2022-08-19T08:46:06;100825.34;;;29.92;55.70
11712;BME280;5912;51.034;6.984;2022-08-19T08:48:38;100826.00;;;29.89;56.32
11712;BME280;5912;51.034;6.984;2022-08-19T08:54:17;100819.63;;;30.14;55.01
11712;BME280;5912;51.034;6.984;2022-08-19T08:56:45;100809.56;;;30.65;54.24
11712;BME280;5912;51.034;6.984;2022-08-19T08:59:24;100818.31;;;31.35;51.63
11712;BME280;5912;51.034;6.984;2022-08-19T09:01:51;100815.19;;;31.82;50.47
11712;BME280;5912;51.034;6.984;2022-08-19T09:04:17;100810.84;;;32.41;48.45
11712;BME280;5912;51.034;6.984;2022-08-19T09:06:57;100808.81;;;33.05;45.48
11712;BME280;5912;51.034;6.984;2022-08-19T09:09:33;100819.59;;;33.45;45.37
11712;BME280;5912;51.034;6.984;2022-08-19T09:14:53;100811.19;;;34.88;42.26
11712;BME280;5912;51.034;6.984;2022-08-19T09:17:23;100811.66;;;35.58;41.47
11712;BME280;5912;51.034;6.984;2022-08-19T09:22:40;100818.84;;;35.92;38.93
11712;BME280;5912;51.034;6.984;2022-08-19T09:25:10;100808.13;;;35.57;38.67
11712;BME280;5912;51.034;6.984;2022-08-19T09:27:38;100811.03;;;35.23;39.36
11712;BME280;5912;51.034;6.984;2022-08-19T09:30:04;100811.00;;;34.81;39.65
11712;BME280;5912;51.034;6.984;2022-08-19T09:32:30;100783.09;;;34.15;40.53
11712;BME280;5912;51.034;6.984;2022-08-19T09:34:56;100811.16;;;34.15;40.73
11712;BME280;5912;51.034;6.984;2022-08-19T09:37:24;100785.22;;;34.06;40.82
11712;BME280;5912;51.034;6.984;2022-08-19T09:39:50;100805.81;;;34.38;40.36
11712;BME280;5912;51.034;6.984;2022-08-19T09:42:15;100807.84;;;34.41;40.06
11712;BME280;5912;51.034;6.984;2022-08-19T09:44:41;100809.69;;;34.37;39.57
11712;BME280;5912;51.034;6.984;2022-08-19T09:47:09;100811.13;;;34.31;40.27
11712;BME280;5912;51.034;6.984;2022-08-19T09:49:35;100812.00;;;34.35;39.18
11712;BME280;5912;51.034;6.984;2022-08-19T09:52:00;100801.66;;;34.44;39.49
11712;BME280;5912;51.034;6.984;2022-08-19T09:54:26;100810.94;;;34.59;37.92
11712;BME280;5912;51.034;6.984;2022-08-19T09:56:53;100807.91;;;35.02;38.97
11712;BME280;5912;51.034;6.984;2022-08-19T09:59:18;100806.63;;;35.60;38.34
11712;BME280;5912;51.034;6.984;2022-08-19T10:01:44;100806.09;;;36.00;36.12
11712;BME280;5912;51.034;6.984;2022-08-19T10:04:09;100807.78;;;36.11;35.04
11712;BME280;5912;51.034;6.984;2022-08-19T10:06:38;100807.94;;;36.22;35.19
11712;BME280;5912;51.034;6.984;2022-08-19T10:09:05;100805.75;;;36.31;35.45
11712;BME280;5912;51.034;6.984;2022-08-19T10:11:31;100810.03;;;36.32;34.63
11712;BME280;5912;51.034;6.984;2022-08-19T10:13:57;100808.00;;;36.55;34.19
11712;BME280;5912;51.034;6.984;2022-08-19T10:16:23;100809.41;;;36.42;34.13
11712;BME280;5912;51.034;6.984;2022-08-19T10:18:49;100806.16;;;36.33;34.13
11712;BME280;5912;51.034;6.984;2022-08-19T10:21:33;100786.25;;;36.10;33.59
11712;BME280;5912;51.034;6.984;2022-08-19T10:24:02;100790.72;;;36.21;34.85
11712;BME280;5912;51.034;6.984;2022-08-19T10:26:32;100794.13;;;36.41;33.29
11712;BME280;5912;51.034;6.984;2022-08-19T10:28:58;100792.75;;;36.57;33.62
11712;BME280;5912;51.034;6.984;2022-08-19T10:31:28;100795.78;;;36.78;32.93
11712;BME280;5912;51.034;6.984;2022-08-19T10:33:55;100806.22;;;37.02;32.04
11712;BME280;5912;51.034;6.984;2022-08-19T10:36:27;100804.34;;;37.13;32.37
11712;BME280;5912;51.034;6.984;2022-08-19T10:38:55;100801.66;;;37.61;31.96
11712;BME280;5912;51.034;6.984;2022-08-19T10:41:23;100793.19;;;37.80;31.25
11712;BME280;5912;51.034;6.984;2022-08-19T10:43:57;100788.34;;;37.63;31.48
11712;BME280;5912;51.034;6.984;2022-08-19T10:46:24;100798.66;;;37.29;32.18
11712;BME280;5912;51.034;6.984;2022-08-19T10:48:51;100794.75;;;37.30;32.31
11712;BME280;5912;51.034;6.984;2022-08-19T10:51:17;100789.13;;;37.20;32.32
11712;BME280;5912;51.034;6.984;2022-08-19T10:54:02;100785.88;;;37.07;32.15
11712;BME280;5912;51.034;6.984;2022-08-19T10:56:28;100781.13;;;37.00;32.92
11712;BME280;5912;51.034;6.984;2022-08-19T10:59:13;100780.44;;;36.41;33.73
11712;BME280;5912;51.034;6.984;2022-08-19T11:01:40;100775.00;;;35.62;33.59
11712;BME280;5912;51.034;6.984;2022-08-19T11:04:06;100775.47;;;35.00;34.70
11712;BME280;5912;51.034;6.984;2022-08-19T11:06:35;100773.19;;;35.25;34.92
11712;BME280;5912;51.034;6.984;2022-08-19T11:09:01;100768.84;;;35.95;33.15
11712;BME280;5912;51.034;6.984;2022-08-19T11:11:27;100764.09;;;35.89;33.97
11712;BME280;5912;51.034;6.984;2022-08-19T11:13:53;100771.28;;;35.29;34.74
11712;BME280;5912;51.034;6.984;2022-08-19T11:16:21;100772.53;;;35.31;35.98
11712;BME280;5912;51.034;6.984;2022-08-19T11:18:50;100773.19;;;35.96;33.43
11712;BME280;5912;51.034;6.984;2022-08-19T11:21:21;100772.13;;;36.04;33.79
11712;BME280;5912;51.034;6.984;2022-08-19T11:23:49;100766.03;;;35.65;33.76
11712;BME280;5912;51.034;6.984;2022-08-19T11:26:16;100765.03;;;35.28;34.49
11712;BME280;5912;51.034;6.984;2022-08-19T11:28:42;100769.91;;;35.87;34.54
11712;BME280;5912;51.034;6.984;2022-08-19T11:31:13;100770.22;;;36.71;32.67
11712;BME280;5912;51.034;6.984;2022-08-19T11:33:38;100770.91;;;37.38;31.50
11712;BME280;5912;51.034;6.984;2022-08-19T11:36:04;100765.81;;;37.97;30.45
11712;BME280;5912;51.034;6.984;2022-08-19T11:38:30;100763.44;;;38.75;30.92
11712;BME280;5912;51.034;6.984;2022-08-19T11:41:00;100763.91;;;39.33;29.19
11712;BME280;5912;51.034;6.984;2022-08-19T11:43:26;100758.38;;;39.68;27.60
11712;BME280;5912;51.034;6.984;2022-08-19T11:45:53;100763.47;;;39.91;28.01
11712;BME280;5912;51.034;6.984;2022-08-19T11:48:19;100768.88;;;40.22;27.21
11712;BME280;5912;51.034;6.984;2022-08-19T11:50:48;100766.78;;;40.54;27.12
11712;BME280;5912;51.034;6.984;2022-08-19T11:53:13;100769.47;;;40.65;26.53
11712;BME280;5912;51.034;6.984;2022-08-19T11:55:39;100761.41;;;40.91;25.79
11712;BME280;5912;51.034;6.984;2022-08-19T11:58:05;100763.63;;;41.18;26.39
11712;BME280;5912;51.034;6.984;2022-08-19T12:00:32;100768.88;;;41.46;25.61
11712;BME280;5912;51.034;6.984;2022-08-19T12:02:58;100761.38;;;41.50;25.12
11712;BME280;5912;51.034;6.984;2022-08-19T12:05:23;100756.28;;;41.45;25.26
11712;BME280;5912;51.034;6.984;2022-08-19T12:07:48;100778.34;;;41.48;24.66
11712;BME280;5912;51.034;6.984;2022-08-19T12:10:14;100762.47;;;41.15;24.83
11712;BME280;5912;51.034;6.984;2022-08-19T12:12:40;100760.44;;;41.19;24.93
11712;BME280;5912;51.034;6.984;2022-08-19T12:15:08;100763.66;;;41.14;24.98
11712;BME280;5912;51.034;6.984;2022-08-19T12:17:33;100764.38;;;41.22;24.76
11712;BME280;5912;51.034;6.984;2022-08-19T12:19:59;100767.59;;;41.13;24.46
11712;BME280;5912;51.034;6.984;2022-08-19T12:22:25;100763.88;;;41.34;24.79
11712;BME280;5912;51.034;6.984;2022-08-19T12:24:50;100758.38;;;41.30;24.79
11712;BME280;5912;51.034;6.984;2022-08-19T12:27:18;100762.31;;;41.33;24.80
11712;BME280;5912;51.034;6.984;2022-08-19T12:29:43;100747.41;;;41.67;24.53
11712;BME280;5912;51.034;6.984;2022-08-19T12:32:08;100753.47;;;41.89;24.12
11712;BME280;5912;51.034;6.984;2022-08-19T12:34:34;100749.97;;;41.85;23.09
11712;BME280;5912;51.034;6.984;2022-08-19T12:37:03;100748.22;;;42.01;23.78
11712;BME280;5912;51.034;6.984;2022-08-19T12:39:29;100750.22;;;42.31;22.73
11712;BME280;5912;51.034;6.984;2022-08-19T12:41:56;100746.28;;;42.59;23.25
11712;BME280;5912;51.034;6.984;2022-08-19T12:44:22;100744.22;;;42.66;22.93
11712;BME280;5912;51.034;6.984;2022-08-19T12:46:47;100747.31;;;42.68;23.55
11712;BME280;5912;51.034;6.984;2022-08-19T12:49:14;100729.72;;;42.85;22.81
11712;BME280;5912;51.034;6.984;2022-08-19T12:51:40;100727.94;;;42.98;21.87
11712;BME280;5912;51.034;6.984;2022-08-19T12:54:06;100747.25;;;42.75;21.89
11712;BME280;5912;51.034;6.984;2022-08-19T12:56:31;100725.94;;;42.46;22.62
11712;BME280;5912;51.034;6.984;2022-08-19T12:59:01;100737.75;;;42.76;23.46
11712;BME280;5912;51.034;6.984;2022-08-19T13:01:27;100725.16;;;42.98;22.92
11712;BME280;5912;51.034;6.984;2022-08-19T13:03:55;100731.75;;;42.81;21.94
11712;BME280;5912;51.034;6.984;2022-08-19T13:06:20;100733.84;;;42.47;21.59
11712;BME280;5912;51.034;6.984;2022-08-19T13:08:46;100726.63;;;41.89;22.41
11712;BME280;5912;51.034;6.984;2022-08-19T13:11:14;100719.75;;;41.71;23.26
11712;BME280;5912;51.034;6.984;2022-08-19T13:13:41;100721.25;;;41.79;23.10
11712;BME280;5912;51.034;6.984;2022-08-19T13:16:10;100723.06;;;41.89;22.29